sensor_id;sensor_type;location;lat;lon;timestamp;P1;durP1;ratioP1;P2;durP2;ratioP2
19812;SDS011;10066;48.108;11.448;2023-06-22T00:01:16;9.73;;;3.47;;
19812;SDS011;10066;48.108;11.448;2023-06-22T00:03:43;6.97;;;3.40;;
19812;SDS011;10066;48.108;11.448;2023-06-22T00:06:10;8.60;;;3.67;;
19812;SDS011;10066;48.108;11.448;2023-06-22T00:08:37;7.20;;;4.03;;
19812;SDS011;10066;48.108;11.448;2023-06-22T00:11:04;12.47;;;3.80;;
19812;SDS011;10066;48.108;11.448;2023-06-22T00:13:33;9.40;;;3.70;;
19812;SDS011;10066;48.108;11.448;2023-06-22T00:16:00;4.77;;;3.23;;
19812;SDS011;10066;48.108;11.448;2023-06-22T00:18:26;6.73;;;3.67;;
19812;SDS011;10066;48.108;11.448;2023-06-22T00:20:55;8.17;;;3.70;;
19812;SDS011;10066;48.108;11.448;2023-06-22T00:23:37;8.27;;;3.93;;
19812;SDS011;10066;48.108;11.448;2023-06-22T00:26:06;7.43;;;3.60;;
19812;SDS011;10066;48.108;11.448;2023-06-22T00:28:34;6.27;;;3.50;;
19812;SDS011;10066;48.108;11.448;2023-06-22T00:31:01;8.37;;;3.33;;
19812;SDS011;10066;48.108;11.448;2023-06-22T00:33:28;6.00;;;3.73;;
19812;SDS011;10066;48.108;11.448;2023-06-22T00:35:55;8.07;;;3.97;;
19812;SDS011;10066;48.108;11.448;2023-06-22T00:38:22;11.37;;;3.80;;
19812;SDS011;10066;48.108;11.448;2023-06-22T00:40:49;8.27;;;3.80;;
19812;SDS011;10066;48.108;11.448;2023-06-22T00:43:16;5.80;;;3.70;;
19812;SDS011;10066;48.108;11.448;2023-06-22T00:45:45;9.10;;;4.10;;
19812;SDS011;10066;48.108;11.448;2023-06-22T00:48:12;7.23;;;3.63;;
19812;SDS011;10066;48.108;11.448;2023-06-22T00:50:40;5.07;;;3.20;;
19812;SDS011;10066;48.108;11.448;2023-06-22T00:53:08;7.63;;;3.80;;
19812;SDS011;10066;48.108;11.448;2023-06-22T00:55:36;7.03;;;3.60;;
19812;SDS011;10066;48.108;11.448;2023-06-22T00:58:03;7.80;;;3.43;;
19812;SDS011;10066;48.108;11.448;2023-06-22T01:00:35;8.07;;;3.70;;
19812;SDS011;10066;48.108;11.448;2023-06-22T01:03:04;11.97;;;3.87;;
19812;SDS011;10066;48.108;11.448;2023-06-22T01:05:34;7.40;;;3.90;;
19812;SDS011;10066;48.108;11.448;2023-06-22T01:08:05;7.57;;;3.73;;
19812;SDS011;10066;48.108;11.448;2023-06-22T01:10:40;7.07;;;4.00;;
19812;SDS011;10066;48.108;11.448;2023-06-22T01:13:14;8.60;;;3.70;;
19812;SDS011;10066;48.108;11.448;2023-06-22T01:15:51;7.10;;;3.80;;
19812;SDS011;10066;48.108;11.448;2023-06-22T01:18:24;8.90;;;4.10;;
19812;SDS011;10066;48.108;11.448;2023-06-22T01:20:56;8.93;;;3.87;;
19812;SDS011;10066;48.108;11.448;2023-06-22T01:23:26;9.53;;;3.93;;
19812;SDS011;10066;48.108;11.448;2023-06-22T01:26:02;9.20;;;4.20;;
19812;SDS011;10066;48.108;11.448;2023-06-22T01:28:39;7.87;;;4.60;;
19812;SDS011;10066;48.108;11.448;2023-06-22T01:31:07;5.20;;;3.70;;
19812;SDS011;10066;48.108;11.448;2023-06-22T01:33:37;8.53;;;3.90;;
19812;SDS011;10066;48.108;11.448;2023-06-22T01:36:07;7.10;;;4.10;;
19812;SDS011;10066;48.108;11.448;2023-06-22T01:38:35;8.80;;;4.20;;
19812;SDS011;10066;48.108;11.448;2023-06-22T01:41:04;7.60;;;4.10;;
19812;SDS011;10066;48.108;11.448;2023-06-22T01:43:31;8.20;;;3.90;;
19812;SDS011;10066;48.108;11.448;2023-06-22T01:46:01;5.07;;;3.67;;
19812;SDS011;10066;48.108;11.448;2023-06-22T01:48:28;9.67;;;4.13;;
19812;SDS011;10066;48.108;11.448;2023-06-22T01:50:56;6.53;;;4.40;;
19812;SDS011;10066;48.108;11.448;2023-06-22T01:53:23;5.37;;;3.70;;
19812;SDS011;10066;48.108;11.448;2023-06-22T01:55:51;8.07;;;4.20;;
19812;SDS011;10066;48.108;11.448;2023-06-22T01:58:25;12.23;;;4.60;;
19812;SDS011;10066;48.108;11.448;2023-06-22T02:00:56;9.00;;;4.00;;
19812;SDS011;10066;48.108;11.448;2023-06-22T02:03:31;8.60;;;4.60;;
19812;SDS011;10066;48.108;11.448;2023-06-22T02:06:03;8.67;;;3.77;;
19812;SDS011;10066;48.108;11.448;2023-06-22T02:08:35;6.87;;;3.80;;
19812;SDS011;10066;48.108;11.448;2023-06-22T02:11:07;6.33;;;3.83;;
19812;SDS011;10066;48.108;11.448;2023-06-22T02:13:45;6.90;;;3.90;;
19812;SDS011;10066;48.108;11.448;2023-06-22T02:16:13;8.63;;;4.10;;
19812;SDS011;10066;48.108;11.448;2023-06-22T02:18:46;8.07;;;4.43;;
19812;SDS011;10066;48.108;11.448;2023-06-22T02:21:16;11.17;;;4.40;;
19812;SDS011;10066;48.108;11.448;2023-06-22T02:23:43;8.90;;;4.27;;
19812;SDS011;10066;48.108;11.448;2023-06-22T02:26:10;9.37;;;4.40;;
19812;SDS011;10066;48.108;11.448;2023-06-22T02:28:37;8.80;;;4.10;;
19812;SDS011;10066;48.108;11.448;2023-06-22T02:31:04;13.23;;;4.30;;
19812;SDS011;10066;48.108;11.448;2023-06-22T02:33:31;6.43;;;4.23;;
19812;SDS011;10066;48.108;11.448;2023-06-22T02:35:59;6.10;;;3.83;;
19812;SDS011;10066;48.108;11.448;2023-06-22T02:38:30;6.73;;;4.50;;
19812;SDS011;10066;48.108;11.448;2023-06-22T02:40:58;8.83;;;4.60;;
19812;SDS011;10066;48.108;11.448;2023-06-22T02:43:25;7.57;;;4.40;;
19812;SDS011;10066;48.108;11.448;2023-06-22T02:45:52;8.63;;;4.33;;
19812;SDS011;10066;48.108;11.448;2023-06-22T02:48:19;9.30;;;4.57;;
19812;SDS011;10066;48.108;11.448;2023-06-22T02:50:46;9.13;;;4.50;;
19812;SDS011;10066;48.108;11.448;2023-06-22T02:53:14;8.37;;;4.63;;
19812;SDS011;10066;48.108;11.448;2023-06-22T02:55:41;8.67;;;4.23;;
19812;SDS011;10066;48.108;11.448;2023-06-22T02:58:08;9.70;;;4.53;;
19812;SDS011;10066;48.108;11.448;2023-06-22T03:00:35;9.30;;;5.27;;
19812;SDS011;10066;48.108;11.448;2023-06-22T03:03:04;8.40;;;4.67;;
19812;SDS011;10066;48.108;11.448;2023-06-22T03:05:31;8.27;;;4.67;;
19812;SDS011;10066;48.108;11.448;2023-06-22T03:08:00;8.43;;;5.10;;
19812;SDS011;10066;48.108;11.448;2023-06-22T03:10:28;10.07;;;5.10;;
19812;SDS011;10066;48.108;11.448;2023-06-22T03:12:55;12.67;;;4.80;;
19812;SDS011;10066;48.108;11.448;2023-06-22T03:15:22;8.33;;;5.53;;
19812;SDS011;10066;48.108;11.448;2023-06-22T03:17:50;8.60;;;5.27;;
19812;SDS011;10066;48.108;11.448;2023-06-22T03:20:17;10.10;;;5.50;;
19812;SDS011;10066;48.108;11.448;2023-06-22T03:22:44;10.37;;;5.60;;
19812;SDS011;10066;48.108;11.448;2023-06-22T03:25:11;11.03;;;5.87;;
19812;SDS011;10066;48.108;11.448;2023-06-22T03:27:40;11.60;;;5.77;;
19812;SDS011;10066;48.108;11.448;2023-06-22T03:30:09;9.20;;;5.13;;
19812;SDS011;10066;48.108;11.448;2023-06-22T03:32:37;9.37;;;5.20;;
19812;SDS011;10066;48.108;11.448;2023-06-22T03:35:05;12.03;;;5.80;;
19812;SDS011;10066;48.108;11.448;2023-06-22T03:37:33;10.73;;;5.40;;
19812;SDS011;10066;48.108;11.448;2023-06-22T03:40:00;15.37;;;5.97;;
19812;SDS011;10066;48.108;11.448;2023-06-22T03:42:28;9.00;;;5.40;;
19812;SDS011;10066;48.108;11.448;2023-06-22T03:44:56;9.93;;;5.50;;
19812;SDS011;10066;48.108;11.448;2023-06-22T03:47:23;10.43;;;5.80;;
19812;SDS011;10066;48.108;11.448;2023-06-22T03:49:50;14.60;;;5.90;;
19812;SDS011;10066;48.108;11.448;2023-06-22T03:52:20;9.17;;;5.40;;
19812;SDS011;10066;48.108;11.448;2023-06-22T03:54:48;9.43;;;5.30;;
19812;SDS011;10066;48.108;11.448;2023-06-22T03:57:14;8.23;;;5.43;;
19812;SDS011;10066;48.108;11.448;2023-06-22T03:59:41;9.00;;;5.20;;
19812;SDS011;10066;48.108;11.448;2023-06-22T04:02:10;8.00;;;5.33;;
19812;SDS011;10066;48.108;11.448;2023-06-22T04:04:37;11.90;;;5.20;;
19812;SDS011;10066;48.108;11.448;2023-06-22T04:07:04;9.90;;;5.97;;
19812;SDS011;10066;48.108;11.448;2023-06-22T04:09:31;9.73;;;5.80;;
19812;SDS011;10066;48.108;11.448;2023-06-22T04:11:58;8.17;;;5.03;;
19812;SDS011;10066;48.108;11.448;2023-06-22T04:14:25;9.20;;;5.67;;
19812;SDS011;10066;48.108;11.448;2023-06-22T04:16:52;8.10;;;4.70;;
19812;SDS011;10066;48.108;11.448;2023-06-22T04:19:20;8.23;;;5.47;;
19812;SDS011;10066;48.108;11.448;2023-06-22T04:21:47;7.17;;;5.37;;
19812;SDS011;10066;48.108;11.448;2023-06-22T04:24:14;12.07;;;5.30;;
19812;SDS011;10066;48.108;11.448;2023-06-22T04:26:41;10.00;;;6.00;;
19812;SDS011;10066;48.108;11.448;2023-06-22T04:29:10;11.00;;;5.43;;
19812;SDS011;10066;48.108;11.448;2023-06-22T04:31:38;10.07;;;5.47;;
19812;SDS011;10066;48.108;11.448;2023-06-22T04:34:05;9.67;;;5.50;;
19812;SDS011;10066;48.108;11.448;2023-06-22T04:36:37;9.63;;;5.63;;
19812;SDS011;10066;48.108;11.448;2023-06-22T04:39:05;12.50;;;5.47;;
19812;SDS011;10066;48.108;11.448;2023-06-22T04:41:34;8.57;;;5.37;;
19812;SDS011;10066;48.108;11.448;2023-06-22T04:44:07;8.70;;;5.53;;
19812;SDS011;10066;48.108;11.448;2023-06-22T04:46:35;8.67;;;5.50;;
19812;SDS011;10066;48.108;11.448;2023-06-22T04:49:04;11.93;;;5.30;;
19812;SDS011;10066;48.108;11.448;2023-06-22T04:51:46;8.87;;;5.60;;
19812;SDS011;10066;48.108;11.448;2023-06-22T04:54:13;10.00;;;5.27;;
19812;SDS011;10066;48.108;11.448;2023-06-22T04:56:41;8.73;;;5.23;;
19812;SDS011;10066;48.108;11.448;2023-06-22T04:59:08;9.10;;;5.40;;
19812;SDS011;10066;48.108;11.448;2023-06-22T05:01:38;9.97;;;5.23;;
19812;SDS011;10066;48.108;11.448;2023-06-22T05:04:04;11.37;;;5.27;;
19812;SDS011;10066;48.108;11.448;2023-06-22T05:06:32;12.13;;;5.80;;
19812;SDS011;10066;48.108;11.448;2023-06-22T05:09:01;11.73;;;5.70;;
19812;SDS011;10066;48.108;11.448;2023-06-22T05:11:30;11.17;;;6.07;;
19812;SDS011;10066;48.108;11.448;2023-06-22T05:13:57;10.33;;;6.00;;
19812;SDS011;10066;48.108;11.448;2023-06-22T05:16:23;13.23;;;6.07;;
19812;SDS011;10066;48.108;11.448;2023-06-22T05:18:51;12.77;;;5.93;;
19812;SDS011;10066;48.108;11.448;2023-06-22T05:21:21;11.00;;;5.73;;
19812;SDS011;10066;48.108;11.448;2023-06-22T05:23:49;15.17;;;5.63;;
19812;SDS011;10066;48.108;11.448;2023-06-22T05:26:17;13.77;;;6.17;;
19812;SDS011;10066;48.108;11.448;2023-06-22T05:28:45;9.97;;;5.90;;
19812;SDS011;10066;48.108;11.448;2023-06-22T05:31:13;15.87;;;6.23;;
19812;SDS011;10066;48.108;11.448;2023-06-22T05:33:40;8.90;;;5.60;;
19812;SDS011;10066;48.108;11.448;2023-06-22T05:36:07;11.53;;;6.10;;
19812;SDS011;10066;48.108;11.448;2023-06-22T05:38:35;16.53;;;6.33;;
19812;SDS011;10066;48.108;11.448;2023-06-22T05:41:02;11.83;;;6.17;;
19812;SDS011;10066;48.108;11.448;2023-06-22T05:43:31;11.00;;;5.67;;
19812;SDS011;10066;48.108;11.448;2023-06-22T05:45:58;10.63;;;5.70;;
19812;SDS011;10066;48.108;11.448;2023-06-22T05:48:25;10.20;;;6.37;;
19812;SDS011;10066;48.108;11.448;2023-06-22T05:50:52;13.43;;;5.70;;
19812;SDS011;10066;48.108;11.448;2023-06-22T05:53:19;19.93;;;6.60;;
19812;SDS011;10066;48.108;11.448;2023-06-22T05:55:46;10.90;;;5.70;;
19812;SDS011;10066;48.108;11.448;2023-06-22T05:58:13;12.07;;;5.63;;
19812;SDS011;10066;48.108;11.448;2023-06-22T06:00:42;9.37;;;6.20;;
19812;SDS011;10066;48.108;11.448;2023-06-22T06:03:09;12.30;;;5.80;;
19812;SDS011;10066;48.108;11.448;2023-06-22T06:05:36;12.53;;;5.80;;
19812;SDS011;10066;48.108;11.448;2023-06-22T06:08:05;10.90;;;5.70;;
19812;SDS011;10066;48.108;11.448;2023-06-22T06:10:32;13.17;;;5.97;;
19812;SDS011;10066;48.108;11.448;2023-06-22T06:13:00;10.90;;;5.47;;
19812;SDS011;10066;48.108;11.448;2023-06-22T06:15:29;10.63;;;5.93;;
19812;SDS011;10066;48.108;11.448;2023-06-22T06:17:58;13.90;;;5.90;;
19812;SDS011;10066;48.108;11.448;2023-06-22T06:20:26;12.03;;;5.93;;
19812;SDS011;10066;48.108;11.448;2023-06-22T06:22:54;13.63;;;6.43;;
19812;SDS011;10066;48.108;11.448;2023-06-22T06:25:21;13.43;;;6.10;;
19812;SDS011;10066;48.108;11.448;2023-06-22T06:27:49;13.57;;;5.53;;
19812;SDS011;10066;48.108;11.448;2023-06-22T06:30:19;12.30;;;5.93;;
19812;SDS011;10066;48.108;11.448;2023-06-22T06:32:47;14.30;;;5.57;;
19812;SDS011;10066;48.108;11.448;2023-06-22T06:35:15;10.90;;;5.50;;
19812;SDS011;10066;48.108;11.448;2023-06-22T06:37:43;11.03;;;6.00;;
19812;SDS011;10066;48.108;11.448;2023-06-22T06:40:12;13.73;;;5.73;;
19812;SDS011;10066;48.108;11.448;2023-06-22T06:42:40;9.73;;;5.87;;
19812;SDS011;10066;48.108;11.448;2023-06-22T06:45:10;18.92;;;6.28;;
19812;SDS011;10066;48.108;11.448;2023-06-22T06:47:37;11.55;;;5.72;;
19812;SDS011;10066;48.108;11.448;2023-06-22T06:50:05;10.63;;;5.82;;
19812;SDS011;10066;48.108;11.448;2023-06-22T06:52:34;12.80;;;5.20;;
19812;SDS011;10066;48.108;11.448;2023-06-22T06:55:02;11.40;;;5.63;;
19812;SDS011;10066;48.108;11.448;2023-06-22T06:57:33;13.30;;;6.28;;
19812;SDS011;10066;48.108;11.448;2023-06-22T07:00:00;12.50;;;5.80;;
19812;SDS011;10066;48.108;11.448;2023-06-22T07:02:30;14.15;;;6.30;;
19812;SDS011;10066;48.108;11.448;2023-06-22T07:04:57;11.93;;;6.07;;
19812;SDS011;10066;48.108;11.448;2023-06-22T07:07:24;12.55;;;5.75;;
19812;SDS011;10066;48.108;11.448;2023-06-22T07:09:52;13.20;;;6.00;;
19812;SDS011;10066;48.108;11.448;2023-06-22T07:12:19;11.45;;;5.75;;
19812;SDS011;10066;48.108;11.448;2023-06-22T07:14:46;11.55;;;6.10;;
19812;SDS011;10066;48.108;11.448;2023-06-22T07:17:13;13.35;;;6.03;;
19812;SDS011;10066;48.108;11.448;2023-06-22T07:19:40;11.23;;;5.97;;
19812;SDS011;10066;48.108;11.448;2023-06-22T07:22:07;12.07;;;5.88;;
19812;SDS011;10066;48.108;11.448;2023-06-22T07:24:34;9.15;;;5.80;;
19812;SDS011;10066;48.108;11.448;2023-06-22T07:27:04;13.18;;;6.30;;
19812;SDS011;10066;48.108;11.448;2023-06-22T07:29:31;17.63;;;6.38;;
19812;SDS011;10066;48.108;11.448;2023-06-22T07:31:58;11.38;;;6.28;;
19812;SDS011;10066;48.108;11.448;2023-06-22T07:34:25;12.57;;;6.47;;
19812;SDS011;10066;48.108;11.448;2023-06-22T07:36:53;11.00;;;6.13;;
19812;SDS011;10066;48.108;11.448;2023-06-22T07:39:19;15.75;;;6.45;;
19812;SDS011;10066;48.108;11.448;2023-06-22T07:41:50;12.00;;;6.15;;
19812;SDS011;10066;48.108;11.448;2023-06-22T07:44:19;12.32;;;6.00;;
19812;SDS011;10066;48.108;11.448;2023-06-22T07:46:46;15.18;;;6.22;;
19812;SDS011;10066;48.108;11.448;2023-06-22T07:49:13;12.38;;;5.93;;
19812;SDS011;10066;48.108;11.448;2023-06-22T07:51:40;13.23;;;5.60;;
19812;SDS011;10066;48.108;11.448;2023-06-22T07:54:07;12.93;;;5.78;;
19812;SDS011;10066;48.108;11.448;2023-06-22T07:56:35;13.45;;;6.00;;
19812;SDS011;10066;48.108;11.448;2023-06-22T07:59:03;11.63;;;6.00;;
19812;SDS011;10066;48.108;11.448;2023-06-22T08:01:31;13.80;;;6.22;;
19812;SDS011;10066;48.108;11.448;2023-06-22T08:03:58;10.40;;;6.07;;
19812;SDS011;10066;48.108;11.448;2023-06-22T08:06:25;17.40;;;6.18;;
19812;SDS011;10066;48.108;11.448;2023-06-22T08:08:52;13.57;;;5.85;;
19812;SDS011;10066;48.108;11.448;2023-06-22T08:11:19;15.45;;;6.05;;
19812;SDS011;10066;48.108;11.448;2023-06-22T08:13:50;11.52;;;5.97;;
19812;SDS011;10066;48.108;11.448;2023-06-22T08:16:17;16.73;;;5.40;;
19812;SDS011;10066;48.108;11.448;2023-06-22T08:18:45;13.25;;;6.07;;
19812;SDS011;10066;48.108;11.448;2023-06-22T08:21:12;12.73;;;5.80;;
19812;SDS011;10066;48.108;11.448;2023-06-22T08:23:39;15.93;;;5.45;;
19812;SDS011;10066;48.108;11.448;2023-06-22T08:26:05;10.45;;;5.75;;
19812;SDS011;10066;48.108;11.448;2023-06-22T08:28:32;15.43;;;6.00;;
19812;SDS011;10066;48.108;11.448;2023-06-22T08:30:59;10.27;;;5.15;;
19812;SDS011;10066;48.108;11.448;2023-06-22T08:33:28;13.80;;;6.18;;
19812;SDS011;10066;48.108;11.448;2023-06-22T08:35:57;11.80;;;5.85;;
19812;SDS011;10066;48.108;11.448;2023-06-22T08:38:25;16.63;;;5.40;;
19812;SDS011;10066;48.108;11.448;2023-06-22T08:40:52;10.35;;;5.65;;
19812;SDS011;10066;48.108;11.448;2023-06-22T08:43:18;10.95;;;5.60;;
19812;SDS011;10066;48.108;11.448;2023-06-22T08:45:45;15.20;;;5.50;;
19812;SDS011;10066;48.108;11.448;2023-06-22T08:48:12;11.73;;;5.47;;
19812;SDS011;10066;48.108;11.448;2023-06-22T08:50:39;13.35;;;5.68;;
19812;SDS011;10066;48.108;11.448;2023-06-22T08:53:08;14.80;;;5.60;;
19812;SDS011;10066;48.108;11.448;2023-06-22T08:55:35;10.73;;;5.55;;
19812;SDS011;10066;48.108;11.448;2023-06-22T08:58:02;11.70;;;5.47;;
19812;SDS011;10066;48.108;11.448;2023-06-22T09:00:30;15.50;;;5.88;;
19812;SDS011;10066;48.108;11.448;2023-06-22T09:02:59;11.95;;;5.55;;
19812;SDS011;10066;48.108;11.448;2023-06-22T09:05:26;15.50;;;5.63;;
19812;SDS011;10066;48.108;11.448;2023-06-22T09:07:53;11.30;;;5.43;;
19812;SDS011;10066;48.108;11.448;2023-06-22T09:10:25;19.55;;;5.65;;
19812;SDS011;10066;48.108;11.448;2023-06-22T09:12:52;15.85;;;6.43;;
19812;SDS011;10066;48.108;11.448;2023-06-22T09:15:19;16.25;;;5.80;;
19812;SDS011;10066;48.108;11.448;2023-06-22T09:17:46;13.95;;;5.70;;
19812;SDS011;10066;48.108;11.448;2023-06-22T09:20:13;12.02;;;5.53;;
19812;SDS011;10066;48.108;11.448;2023-06-22T09:22:40;12.55;;;5.25;;
19812;SDS011;10066;48.108;11.448;2023-06-22T09:25:08;13.88;;;5.78;;
19812;SDS011;10066;48.108;11.448;2023-06-22T09:27:36;16.80;;;6.15;;
19812;SDS011;10066;48.108;11.448;2023-06-22T09:30:04;14.25;;;5.88;;
19812;SDS011;10066;48.108;11.448;2023-06-22T09:32:31;15.68;;;6.05;;
19812;SDS011;10066;48.108;11.448;2023-06-22T09:34:58;13.32;;;6.13;;
19812;SDS011;10066;48.108;11.448;2023-06-22T09:37:29;11.77;;;5.55;;
19812;SDS011;10066;48.108;11.448;2023-06-22T09:39:56;11.95;;;5.55;;
19812;SDS011;10066;48.108;11.448;2023-06-22T09:42:24;16.33;;;5.55;;
19812;SDS011;10066;48.108;11.448;2023-06-22T09:44:52;15.23;;;5.68;;
19812;SDS011;10066;48.108;11.448;2023-06-22T09:47:19;15.60;;;5.80;;
19812;SDS011;10066;48.108;11.448;2023-06-22T09:49:46;11.68;;;5.85;;
19812;SDS011;10066;48.108;11.448;2023-06-22T09:52:13;18.17;;;6.18;;
19812;SDS011;10066;48.108;11.448;2023-06-22T09:54:39;13.15;;;5.82;;
19812;SDS011;10066;48.108;11.448;2023-06-22T09:57:06;11.98;;;6.07;;
19812;SDS011;10066;48.108;11.448;2023-06-22T09:59:33;16.88;;;6.05;;
19812;SDS011;10066;48.108;11.448;2023-06-22T10:02:02;15.55;;;5.70;;
19812;SDS011;10066;48.108;11.448;2023-06-22T10:04:29;16.27;;;5.95;;
19812;SDS011;10066;48.108;11.448;2023-06-22T10:06:56;14.27;;;5.40;;
19812;SDS011;10066;48.108;11.448;2023-06-22T10:09:23;14.23;;;5.68;;
19812;SDS011;10066;48.108;11.448;2023-06-22T10:11:49;16.25;;;5.75;;
19812;SDS011;10066;48.108;11.448;2023-06-22T10:14:16;15.80;;;5.90;;
19812;SDS011;10066;48.108;11.448;2023-06-22T10:16:43;14.18;;;5.50;;
19812;SDS011;10066;48.108;11.448;2023-06-22T10:19:11;13.98;;;5.60;;
19812;SDS011;10066;48.108;11.448;2023-06-22T10:21:38;17.40;;;5.72;;
19812;SDS011;10066;48.108;11.448;2023-06-22T10:24:05;15.27;;;5.47;;
19812;SDS011;10066;48.108;11.448;2023-06-22T10:26:33;11.68;;;5.35;;
19812;SDS011;10066;48.108;11.448;2023-06-22T10:29:02;16.55;;;5.90;;
19812;SDS011;10066;48.108;11.448;2023-06-22T10:31:29;10.68;;;5.68;;
19812;SDS011;10066;48.108;11.448;2023-06-22T10:33:56;15.50;;;5.93;;
19812;SDS011;10066;48.108;11.448;2023-06-22T10:36:25;16.85;;;5.80;;
19812;SDS011;10066;48.108;11.448;2023-06-22T10:38:51;18.67;;;5.40;;
19812;SDS011;10066;48.108;11.448;2023-06-22T10:41:19;15.32;;;5.45;;
19812;SDS011;10066;48.108;11.448;2023-06-22T10:43:46;14.82;;;5.80;;
19812;SDS011;10066;48.108;11.448;2023-06-22T10:46:13;13.90;;;5.82;;
19812;SDS011;10066;48.108;11.448;2023-06-22T10:48:39;13.35;;;5.60;;
19812;SDS011;10066;48.108;11.448;2023-06-22T10:51:06;10.85;;;5.18;;
19812;SDS011;10066;48.108;11.448;2023-06-22T10:53:34;15.07;;;5.57;;
19812;SDS011;10066;48.108;11.448;2023-06-22T10:56:01;10.35;;;5.30;;
19812;SDS011;10066;48.108;11.448;2023-06-22T10:58:28;12.15;;;5.75;;
19812;SDS011;10066;48.108;11.448;2023-06-22T11:00:55;20.25;;;6.40;;
19812;SDS011;10066;48.108;11.448;2023-06-22T11:03:22;15.07;;;5.47;;
19812;SDS011;10066;48.108;11.448;2023-06-22T11:05:49;13.40;;;5.40;;
19812;SDS011;10066;48.108;11.448;2023-06-22T11:08:15;14.45;;;5.18;;
19812;SDS011;10066;48.108;11.448;2023-06-22T11:10:44;15.35;;;6.07;;
19812;SDS011;10066;48.108;11.448;2023-06-22T11:13:11;17.02;;;5.80;;
19812;SDS011;10066;48.108;11.448;2023-06-22T11:15:38;13.18;;;5.15;;
19812;SDS011;10066;48.108;11.448;2023-06-22T11:18:05;12.15;;;6.05;;
19812;SDS011;10066;48.108;11.448;2023-06-22T11:20:32;15.25;;;6.40;;
19812;SDS011;10066;48.108;11.448;2023-06-22T11:23:03;18.02;;;5.88;;
19812;SDS011;10066;48.108;11.448;2023-06-22T11:25:30;15.18;;;5.68;;
19812;SDS011;10066;48.108;11.448;2023-06-22T11:28:01;14.02;;;6.25;;
19812;SDS011;10066;48.108;11.448;2023-06-22T11:30:28;12.88;;;5.50;;
19812;SDS011;10066;48.108;11.448;2023-06-22T11:32:57;10.23;;;5.40;;
19812;SDS011;10066;48.108;11.448;2023-06-22T11:35:25;15.75;;;5.90;;
19812;SDS011;10066;48.108;11.448;2023-06-22T11:37:52;15.65;;;6.47;;
19812;SDS011;10066;48.108;11.448;2023-06-22T11:40:19;13.02;;;6.03;;
19812;SDS011;10066;48.108;11.448;2023-06-22T11:42:46;16.35;;;5.88;;
19812;SDS011;10066;48.108;11.448;2023-06-22T11:45:14;17.10;;;6.07;;
19812;SDS011;10066;48.108;11.448;2023-06-22T11:47:43;13.45;;;5.65;;
19812;SDS011;10066;48.108;11.448;2023-06-22T11:50:10;15.10;;;5.82;;
19812;SDS011;10066;48.108;11.448;2023-06-22T11:52:37;18.30;;;5.80;;
19812;SDS011;10066;48.108;11.448;2023-06-22T11:55:04;14.02;;;5.60;;
19812;SDS011;10066;48.108;11.448;2023-06-22T11:57:32;15.23;;;5.95;;
19812;SDS011;10066;48.108;11.448;2023-06-22T12:00:00;13.35;;;6.20;;
19812;SDS011;10066;48.108;11.448;2023-06-22T12:02:32;16.25;;;6.22;;
19812;SDS011;10066;48.108;11.448;2023-06-22T12:04:59;18.60;;;6.43;;
19812;SDS011;10066;48.108;11.448;2023-06-22T12:07:29;14.98;;;6.15;;
19812;SDS011;10066;48.108;11.448;2023-06-22T12:09:56;15.10;;;5.57;;
19812;SDS011;10066;48.108;11.448;2023-06-22T12:12:23;12.15;;;6.13;;
19812;SDS011;10066;48.108;11.448;2023-06-22T12:14:50;19.85;;;6.10;;
19812;SDS011;10066;48.108;11.448;2023-06-22T12:17:17;20.40;;;6.15;;
19812;SDS011;10066;48.108;11.448;2023-06-22T12:19:45;14.43;;;6.20;;
19812;SDS011;10066;48.108;11.448;2023-06-22T12:22:12;15.63;;;6.40;;
19812;SDS011;10066;48.108;11.448;2023-06-22T12:24:39;19.40;;;6.63;;
19812;SDS011;10066;48.108;11.448;2023-06-22T12:27:06;13.00;;;5.85;;
19812;SDS011;10066;48.108;11.448;2023-06-22T12:29:33;12.10;;;5.72;;
19812;SDS011;10066;48.108;11.448;2023-06-22T12:31:59;20.35;;;6.25;;
19812;SDS011;10066;48.108;11.448;2023-06-22T12:34:26;16.23;;;6.55;;
19812;SDS011;10066;48.108;11.448;2023-06-22T12:36:54;13.73;;;4.80;;
19812;SDS011;10066;48.108;11.448;2023-06-22T12:39:21;16.67;;;5.93;;
19812;SDS011;10066;48.108;11.448;2023-06-22T12:41:48;16.23;;;5.78;;
19812;SDS011;10066;48.108;11.448;2023-06-22T12:44:15;11.52;;;5.38;;
19812;SDS011;10066;48.108;11.448;2023-06-22T12:46:43;11.73;;;5.95;;
19812;SDS011;10066;48.108;11.448;2023-06-22T12:49:10;14.48;;;5.78;;
19812;SDS011;10066;48.108;11.448;2023-06-22T12:51:39;17.50;;;6.47;;
19812;SDS011;10066;48.108;11.448;2023-06-22T12:54:08;14.13;;;6.18;;
19812;SDS011;10066;48.108;11.448;2023-06-22T12:56:36;11.93;;;5.75;;
19812;SDS011;10066;48.108;11.448;2023-06-22T12:59:03;17.13;;;5.85;;
19812;SDS011;10066;48.108;11.448;2023-06-22T13:01:31;14.00;;;5.53;;
19812;SDS011;10066;48.108;11.448;2023-06-22T13:03:58;16.98;;;5.97;;
19812;SDS011;10066;48.108;11.448;2023-06-22T13:06:25;16.70;;;5.70;;
19812;SDS011;10066;48.108;11.448;2023-06-22T13:08:52;14.75;;;6.35;;
19812;SDS011;10066;48.108;11.448;2023-06-22T13:11:20;17.75;;;5.63;;
19812;SDS011;10066;48.108;11.448;2023-06-22T13:13:47;17.10;;;6.10;;
19812;SDS011;10066;48.108;11.448;2023-06-22T13:16:14;13.45;;;5.63;;
19812;SDS011;10066;48.108;11.448;2023-06-22T13:18:41;15.93;;;5.78;;
19812;SDS011;10066;48.108;11.448;2023-06-22T13:21:08;13.93;;;5.10;;
19812;SDS011;10066;48.108;11.448;2023-06-22T13:23:35;14.93;;;5.30;;
19812;SDS011;10066;48.108;11.448;2023-06-22T13:26:02;16.55;;;5.90;;
19812;SDS011;10066;48.108;11.448;2023-06-22T13:28:30;17.17;;;5.72;;
19812;SDS011;10066;48.108;11.448;2023-06-22T13:30:58;9.05;;;5.15;;
19812;SDS011;10066;48.108;11.448;2023-06-22T13:33:24;13.35;;;5.50;;
19812;SDS011;10066;48.108;11.448;2023-06-22T13:35:51;13.65;;;5.10;;
19812;SDS011;10066;48.108;11.448;2023-06-22T13:38:18;18.27;;;6.30;;
19812;SDS011;10066;48.108;11.448;2023-06-22T13:40:45;15.02;;;4.82;;
19812;SDS011;10066;48.108;11.448;2023-06-22T13:43:13;12.70;;;5.10;;
19812;SDS011;10066;48.108;11.448;2023-06-22T13:45:42;13.70;;;5.55;;
19812;SDS011;10066;48.108;11.448;2023-06-22T13:48:09;12.95;;;5.38;;
19812;SDS011;10066;48.108;11.448;2023-06-22T13:50:36;12.27;;;5.45;;
19812;SDS011;10066;48.108;11.448;2023-06-22T13:53:03;11.00;;;5.05;;
19812;SDS011;10066;48.108;11.448;2023-06-22T13:55:30;18.15;;;5.30;;
19812;SDS011;10066;48.108;11.448;2023-06-22T13:57:56;15.55;;;5.50;;
19812;SDS011;10066;48.108;11.448;2023-06-22T14:00:23;15.20;;;4.88;;
19812;SDS011;10066;48.108;11.448;2023-06-22T14:02:51;14.40;;;5.15;;
19812;SDS011;10066;48.108;11.448;2023-06-22T14:05:18;18.52;;;5.22;;
19812;SDS011;10066;48.108;11.448;2023-06-22T14:07:45;14.32;;;4.95;;
19812;SDS011;10066;48.108;11.448;2023-06-22T14:10:12;15.10;;;5.80;;
19812;SDS011;10066;48.108;11.448;2023-06-22T14:12:39;15.25;;;5.78;;
19812;SDS011;10066;48.108;11.448;2023-06-22T14:15:06;16.42;;;5.45;;
19812;SDS011;10066;48.108;11.448;2023-06-22T14:17:33;15.68;;;4.95;;
19812;SDS011;10066;48.108;11.448;2023-06-22T14:20:02;15.35;;;5.38;;
19812;SDS011;10066;48.108;11.448;2023-06-22T14:22:30;14.07;;;4.90;;
19812;SDS011;10066;48.108;11.448;2023-06-22T14:24:57;12.30;;;5.32;;
19812;SDS011;10066;48.108;11.448;2023-06-22T14:27:24;18.38;;;5.10;;
19812;SDS011;10066;48.108;11.448;2023-06-22T14:29:51;11.82;;;5.47;;